Time;durP1;ratioP1;P1;durP2;ratioP2;P2;SDS_P1;SDS_P2;PMS_P1;PMS_P2;Temp;Humidity;BMP_temperature;BMP_pressure;BME280_temperature;BME280_humidity;BME280_pressure;Samples;Min_cycle;Max_cycle;Signal;HPM_P1;HPM_P2
2023/06/11 00:01:51;;;;;;;7.07;6.47;;;21.20;99.90;;;;;;5114042;28;20169;-68
2023/06/11 00:04:25;;;;;;;8.83;8.10;;;21.20;99.90;;;;;;5114009;28;20459;-67
2023/06/11 00:06:54;;;;;;;7.43;6.87;;;21.20;99.90;;;;;;5113759;28;20146;-68
2023/06/11 00:09:21;;;;;;;8.27;7.67;;;21.20;99.90;;;;;;5113608;28;20442;-68
2023/06/11 00:11:47;;;;;;;8.20;7.60;;;21.20;99.90;;;;;;5113343;28;20916;-69
2023/06/11 00:14:12;;;;;;;8.33;7.30;;;21.10;99.90;;;;;;5113805;28;20397;-68
2023/06/11 00:16:40;;;;;;;8.07;7.27;;;21.00;99.90;;;;;;5113653;28;20157;-68
2023/06/11 00:19:06;;;;;;;7.57;6.97;;;21.00;99.90;;;;;;5113789;28;20203;-68
2023/06/11 00:21:32;;;;;;;7.60;7.00;;;21.00;99.90;;;;;;5113530;28;20785;-67
2023/06/11 00:23:59;;;;;;;8.97;8.17;;;20.90;99.90;;;;;;5113436;28;20406;-68
2023/06/11 00:26:25;;;;;;;8.07;7.37;;;20.90;99.90;;;;;;5112137;28;20173;-68
2023/06/11 00:28:51;;;;;;;8.27;7.57;;;20.90;99.90;;;;;;5113051;28;20458;-68
2023/06/11 00:31:17;;;;;;;7.67;6.97;;;20.90;99.90;;;;;;5113668;28;20970;-68
2023/06/11 00:33:43;;;;;;;7.40;6.80;;;20.80;99.90;;;;;;5113346;28;20634;-68
2023/06/11 00:36:09;;;;;;;8.17;7.40;;;20.80;99.90;;;;;;5113195;28;20455;-67
2023/06/11 00:38:35;;;;;;;9.17;8.40;;;20.80;99.90;;;;;;5113074;28;20431;-69
2023/06/11 00:41:01;;;;;;;7.80;7.10;;;20.90;99.90;;;;;;5112950;28;20179;-69
2023/06/11 00:43:28;;;;;;;8.57;7.77;;;20.80;99.90;;;;;;5112849;28;20398;-68
2023/06/11 00:45:54;;;;;;;9.00;8.10;;;20.80;99.90;;;;;;5113511;28;20172;-69
2023/06/11 00:48:21;;;;;;;9.40;8.60;;;20.70;99.90;;;;;;5112563;28;20492;-68
2023/06/11 00:50:51;;;;;;;8.73;8.03;;;20.60;99.90;;;;;;5094785;28;20407;-69
2023/06/11 00:53:18;;;;;;;8.73;8.03;;;20.70;99.90;;;;;;5113470;28;20390;-70
2023/06/11 00:55:45;;;;;;;9.10;8.30;;;20.70;99.90;;;;;;5112510;28;20414;-68
2023/06/11 00:58:14;;;;;;;8.87;8.07;;;20.70;99.90;;;;;;5112933;28;20410;-69
2023/06/11 01:00:45;;;;;;;8.50;7.80;;;20.80;99.90;;;;;;5113345;28;20804;-68
2023/06/11 01:03:17;;;;;;;8.60;7.90;;;20.70;99.90;;;;;;5112926;28;20386;-68
2023/06/11 01:06:02;;;;;;;7.93;7.20;;;20.60;99.90;;;;;;5113120;28;20379;-69
2023/06/11 01:08:30;;;;;;;8.37;7.77;;;20.60;99.90;;;;;;5113096;28;20485;-67
2023/06/11 01:11:01;;;;;;;8.40;7.70;;;20.70;99.90;;;;;;5112586;28;20398;-67
2023/06/11 01:13:30;;;;;;;9.33;8.60;;;20.60;99.90;;;;;;5112978;28;20422;-67
2023/06/11 01:16:03;;;;;;;8.40;7.80;;;20.60;99.90;;;;;;5113036;28;20399;-69
2023/06/11 01:18:39;;;;;;;8.53;7.83;;;20.70;99.90;;;;;;5113178;28;20426;-68
2023/06/11 01:21:12;;;;;;;8.90;8.10;;;20.70;99.90;;;;;;5113264;28;20390;-68
2023/06/11 01:23:46;;;;;;;9.07;8.20;;;20.80;99.90;;;;;;5113220;28;20383;-68
2023/06/11 01:26:46;;;;;;;8.73;8.03;;;20.70;99.90;;;;;;5111819;28;20462;-68
2023/06/11 01:29:14;;;;;;;7.93;7.33;;;20.60;99.90;;;;;;5112756;28;20939;-67
2023/06/11 01:31:41;;;;;;;9.30;8.50;;;20.60;99.90;;;;;;5113171;28;20889;-68
2023/06/11 01:34:08;;;;;;;9.13;8.10;;;20.60;99.90;;;;;;5112560;28;20409;-68
2023/06/11 01:36:36;;;;;;;8.93;8.23;;;20.60;99.90;;;;;;5112372;28;20401;-68
2023/06/11 01:39:04;;;;;;;8.60;7.80;;;20.50;99.90;;;;;;5112619;28;20928;-68
2023/06/11 01:41:30;;;;;;;8.70;8.00;;;20.40;99.90;;;;;;5112299;28;20561;-68
2023/06/11 01:43:56;;;;;;;8.07;7.33;;;20.30;99.90;;;;;;5112451;28;20410;-68
2023/06/11 01:46:22;;;;;;;8.23;7.53;;;20.20;99.90;;;;;;5112257;28;20402;-68
2023/06/11 01:48:47;;;;;;;8.53;7.83;;;20.20;99.90;;;;;;5094639;28;20201;-67
2023/06/11 01:51:14;;;;;;;8.50;7.80;;;20.20;99.90;;;;;;5112473;28;20425;-68
2023/06/11 01:53:43;;;;;;;8.73;8.07;;;20.20;99.90;;;;;;5112876;28;20157;-67
2023/06/11 01:56:09;;;;;;;8.63;7.73;;;20.10;99.90;;;;;;5112149;28;20460;-67
2023/06/11 01:58:37;;;;;;;8.53;7.80;;;20.10;99.90;;;;;;5112400;28;20989;-67
2023/06/11 02:01:03;;;;;;;10.90;9.90;;;19.90;99.90;;;;;;5115647;28;20493;-68
2023/06/11 02:03:28;;;;;;;10.57;9.77;;;19.80;99.90;;;;;;5116401;28;20410;-68
2023/06/11 02:05:54;;;;;;;9.47;8.67;;;19.70;99.90;;;;;;5116326;28;20904;-68
2023/06/11 02:08:20;;;;;;;10.53;9.53;;;19.70;99.90;;;;;;5116495;28;20188;-68
2023/06/11 02:10:46;;;;;;;9.97;9.10;;;19.70;99.90;;;;;;5115978;28;20233;-68
2023/06/11 02:13:11;;;;;;;10.90;9.90;;;19.70;99.90;;;;;;5116203;28;20805;-68
2023/06/11 02:15:37;;;;;;;9.57;8.67;;;19.70;99.90;;;;;;5116312;28;20165;-68
2023/06/11 02:18:03;;;;;;;9.17;8.47;;;19.60;99.90;;;;;;5116183;28;20531;-69
2023/06/11 02:20:29;;;;;;;10.10;9.30;;;19.50;99.90;;;;;;5115958;28;20188;-68
2023/06/11 02:22:54;;;;;;;10.03;9.23;;;19.60;99.90;;;;;;5116540;28;20317;-68
2023/06/11 02:25:20;;;;;;;8.70;8.00;;;19.50;99.90;;;;;;5114856;28;20181;-67
2023/06/11 02:27:49;;;;;;;9.70;8.90;;;19.60;99.90;;;;;;5115659;28;20247;-69
2023/06/11 02:30:15;;;;;;;9.93;9.03;;;19.50;99.90;;;;;;5115498;28;20283;-68
2023/06/11 02:32:40;;;;;;;10.47;9.57;;;19.40;99.90;;;;;;5116239;28;20529;-69
2023/06/11 02:35:07;;;;;;;9.07;8.33;;;19.40;99.90;;;;;;5115732;28;20897;-68
2023/06/11 02:37:32;;;;;;;9.37;8.57;;;19.40;99.90;;;;;;5097174;28;20192;-68
2023/06/11 02:39:58;;;;;;;9.57;8.87;;;19.40;99.90;;;;;;5115300;28;20450;-68
2023/06/11 02:42:24;;;;;;;9.17;8.47;;;19.50;99.90;;;;;;5114869;28;20198;-68
2023/06/11 02:44:49;;;;;;;9.10;8.40;;;19.50;99.90;;;;;;5115907;28;20173;-68
2023/06/11 02:47:15;;;;;;;9.40;8.70;;;19.50;99.90;;;;;;5115643;28;20251;-68
2023/06/11 02:49:40;;;;;;;9.73;8.83;;;19.50;99.90;;;;;;5115510;28;20196;-68
2023/06/11 02:52:06;;;;;;;10.30;9.40;;;19.50;99.90;;;;;;5115275;28;20189;-68
2023/06/11 02:54:32;;;;;;;8.77;8.10;;;19.40;99.90;;;;;;5114995;28;20171;-69
2023/06/11 02:56:57;;;;;;;9.07;8.30;;;19.40;99.90;;;;;;5115153;28;20251;-67
2023/06/11 02:59:23;;;;;;;9.00;8.20;;;19.30;99.90;;;;;;5115403;28;20701;-68
2023/06/11 03:01:49;;;;;;;9.10;8.37;;;19.30;99.90;;;;;;5115451;28;20173;-68
2023/06/11 03:04:14;;;;;;;9.03;8.33;;;19.20;99.90;;;;;;5115083;28;20177;-68
2023/06/11 03:06:40;;;;;;;9.90;8.90;;;19.40;99.90;;;;;;5115072;28;20188;-68
2023/06/11 03:09:05;;;;;;;8.40;7.80;;;19.30;99.90;;;;;;5115340;28;20578;-68
2023/06/11 03:11:31;;;;;;;9.70;8.90;;;19.30;99.90;;;;;;5114213;28;20161;-68
2023/06/11 03:13:57;;;;;;;8.90;8.20;;;19.40;99.90;;;;;;5115327;28;20603;-68
2023/06/11 03:16:22;;;;;;;8.87;8.17;;;19.30;99.90;;;;;;5115265;28;20164;-68
2023/06/11 03:18:48;;;;;;;8.70;8.00;;;19.30;99.90;;;;;;5114863;28;20185;-68
2023/06/11 03:21:13;;;;;;;9.30;8.60;;;19.40;99.90;;;;;;5115178;28;20630;-68
2023/06/11 03:23:39;;;;;;;10.10;9.30;;;19.30;99.90;;;;;;5115004;28;20189;-68
2023/06/11 03:26:05;;;;;;;8.63;7.93;;;19.20;99.90;;;;;;5113858;28;20371;-68
2023/06/11 03:28:30;;;;;;;9.80;8.90;;;19.20;99.90;;;;;;5114635;28;20197;-68
2023/06/11 03:30:56;;;;;;;8.03;7.43;;;19.20;99.90;;;;;;5096392;28;20164;-67
2023/06/11 03:33:21;;;;;;;10.23;9.20;;;19.20;99.90;;;;;;5114639;28;20160;-68
2023/06/11 03:35:47;;;;;;;9.30;8.60;;;19.00;99.90;;;;;;5114815;28;20649;-68
2023/06/11 03:38:12;;;;;;;8.30;7.57;;;18.90;99.90;;;;;;5114383;28;20224;-68
2023/06/11 03:40:38;;;;;;;10.40;9.60;;;19.00;99.90;;;;;;5114289;28;20161;-69
2023/06/11 03:43:03;;;;;;;8.10;7.40;;;18.90;99.90;;;;;;5114731;28;20293;-67
2023/06/11 03:45:29;;;;;;;8.87;8.07;;;18.90;99.90;;;;;;5114262;28;20513;-69
2023/06/11 03:47:56;;;;;;;9.23;8.33;;;18.90;99.90;;;;;;5114291;28;20591;-69
2023/06/11 03:50:22;;;;;;;9.50;8.70;;;18.90;99.90;;;;;;5114319;28;20185;-69
2023/06/11 03:52:48;;;;;;;9.67;8.87;;;19.00;99.90;;;;;;5114217;28;20443;-68
2023/06/11 03:55:14;;;;;;;8.50;7.80;;;19.00;99.90;;;;;;5113690;28;20411;-69
2023/06/11 03:57:40;;;;;;;7.93;7.33;;;19.00;99.90;;;;;;5113943;28;20156;-68
2023/06/11 04:00:07;;;;;;;9.80;9.00;;;19.00;99.90;;;;;;5114091;28;20442;-69
2023/06/11 04:02:36;;;;;;;8.37;7.67;;;19.00;99.90;;;;;;5114189;28;20247;-68
2023/06/11 04:05:02;;;;;;;8.83;8.13;;;19.00;99.90;;;;;;5113859;28;20399;-68
2023/06/11 04:07:27;;;;;;;9.40;8.67;;;19.10;99.90;;;;;;5113792;28;20408;-69
2023/06/11 04:09:53;;;;;;;8.40;7.63;;;19.10;99.90;;;;;;5113268;28;20200;-68
2023/06/11 04:12:19;;;;;;;9.30;8.50;;;19.20;99.90;;;;;;5113321;28;20161;-68
2023/06/11 04:14:44;;;;;;;7.87;7.27;;;19.20;99.90;;;;;;5113679;28;20161;-68
2023/06/11 04:17:10;;;;;;;8.07;7.47;;;19.20;99.90;;;;;;5111958;28;20547;-67
2023/06/11 04:19:36;;;;;;;8.83;8.17;;;19.10;99.90;;;;;;5113874;28;20192;-68
2023/06/11 04:22:01;;;;;;;8.00;7.40;;;19.10;99.90;;;;;;5113153;28;20169;-68
2023/06/11 04:24:27;;;;;;;9.17;8.33;;;19.20;99.90;;;;;;5113139;28;20541;-69
2023/06/11 04:26:53;;;;;;;8.70;8.00;;;19.20;99.90;;;;;;5095014;28;20256;-68
2023/06/11 04:29:18;;;;;;;9.97;9.00;;;19.20;99.90;;;;;;5113330;28;20196;-68
2023/06/11 04:31:47;;;;;;;9.10;8.30;;;19.30;99.90;;;;;;5113295;28;20247;-68
2023/06/11 04:34:16;;;;;;;8.73;8.00;;;19.30;99.90;;;;;;5113461;28;20165;-68
2023/06/11 04:36:43;;;;;;;8.43;7.67;;;19.30;99.90;;;;;;5113645;28;20892;-68
2023/06/11 04:39:08;;;;;;;8.10;7.40;;;19.30;99.90;;;;;;5113189;28;20434;-68
2023/06/11 04:41:36;;;;;;;8.10;7.50;;;19.40;99.90;;;;;;5113062;28;20402;-68
2023/06/11 04:44:03;;;;;;;8.90;8.17;;;19.50;99.90;;;;;;5113052;28;20271;-68
2023/06/11 04:46:29;;;;;;;8.50;7.70;;;19.50;99.90;;;;;;5113516;28;20773;-68
2023/06/11 04:48:59;;;;;;;9.27;7.50;;;19.50;99.90;;;;;;5113186;28;20446;-69
2023/06/11 04:51:32;;;;;;;9.17;8.47;;;19.60;99.90;;;;;;5113403;28;20153;-68
2023/06/11 04:54:01;;;;;;;8.90;8.20;;;19.50;99.90;;;;;;5113214;28;20374;-68
2023/06/11 04:56:26;;;;;;;7.60;7.00;;;19.60;99.90;;;;;;5094583;28;20421;-68
2023/06/11 04:58:52;;;;;;;8.20;7.60;;;19.60;99.90;;;;;;5113058;28;20797;-68
2023/06/11 05:01:18;;;;;;;7.53;6.93;;;19.60;99.90;;;;;;5113037;28;20168;-68
2023/06/11 05:03:43;;;;;;;9.03;8.23;;;19.70;99.90;;;;;;5113109;28;20164;-68
2023/06/11 05:06:13;;;;;;;8.13;7.50;;;19.80;99.90;;;;;;5113569;28;20548;-68
2023/06/11 05:08:38;;;;;;;9.00;8.37;;;19.90;99.90;;;;;;5112905;28;20216;-69
2023/06/11 05:11:04;;;;;;;7.97;7.37;;;20.00;99.90;;;;;;5113022;28;20455;-68
2023/06/11 05:13:30;;;;;;;8.83;8.13;;;20.20;99.90;;;;;;5113325;28;20165;-68
2023/06/11 05:15:56;;;;;;;8.00;7.30;;;20.40;99.90;;;;;;5113161;28;20171;-68
2023/06/11 05:18:24;;;;;;;9.27;8.33;;;20.50;99.90;;;;;;5112922;28;20165;-68
2023/06/11 05:20:49;;;;;;;8.43;7.63;;;20.60;99.90;;;;;;5114683;28;20449;-68
2023/06/11 05:23:15;;;;;;;8.03;7.33;;;20.50;99.90;;;;;;5113104;28;20430;-68
2023/06/11 05:25:47;;;;;;;8.23;7.53;;;20.70;99.90;;;;;;5113154;28;20180;-69
2023/06/11 05:28:16;;;;;;;8.00;7.37;;;20.60;99.90;;;;;;5112773;28;20885;-68
2023/06/11 05:30:47;;;;;;;8.77;8.17;;;20.80;99.90;;;;;;5133572;22;20573;-65
2023/06/11 05:33:13;;;;;;;7.67;7.07;;;21.00;99.90;;;;;;5112823;28;20375;-66
2023/06/11 05:35:39;;;;;;;7.73;7.13;;;21.20;99.90;;;;;;5116622;28;20836;-65
2023/06/11 05:38:06;;;;;;;9.33;8.43;;;21.20;99.90;;;;;;5116258;28;20195;-65
2023/06/11 05:40:32;;;;;;;8.87;8.17;;;21.30;99.90;;;;;;5116301;28;20430;-65
2023/06/11 05:42:58;;;;;;;7.27;6.77;;;21.20;99.90;;;;;;5115994;28;20389;-65
2023/06/11 05:45:25;;;;;;;8.27;7.47;;;21.20;99.90;;;;;;5116489;28;20409;-65
2023/06/11 05:47:51;;;;;;;7.30;6.70;;;21.30;99.90;;;;;;5116311;28;20387;-65
2023/06/11 05:50:16;;;;;;;8.03;7.37;;;21.30;99.90;;;;;;5116527;28;20450;-67
2023/06/11 05:52:42;;;;;;;8.80;7.93;;;21.30;99.90;;;;;;5116300;28;20649;-64
2023/06/11 05:55:07;;;;;;;8.13;7.43;;;21.20;99.90;;;;;;5116022;28;20164;-65
2023/06/11 05:57:33;;;;;;;8.47;7.80;;;21.20;99.90;;;;;;5115721;28;20171;-67
2023/06/11 05:59:58;;;;;;;7.70;7.10;;;21.40;99.90;;;;;;5115958;28;20700;-65
2023/06/11 06:02:24;;;;;;;8.70;7.73;;;21.70;99.90;;;;;;5115480;28;20585;-65
2023/06/11 06:04:49;;;;;;;8.40;7.77;;;21.60;99.90;;;;;;5116096;28;20656;-65
2023/06/11 06:07:16;;;;;;;7.13;6.53;;;21.70;99.90;;;;;;5115742;28;20165;-66
2023/06/11 06:09:42;;;;;;;8.47;7.80;;;21.60;99.90;;;;;;5115716;28;20197;-63
2023/06/11 06:12:09;;;;;;;7.70;7.10;;;21.70;99.90;;;;;;5115113;28;20403;-65
2023/06/11 06:14:35;;;;;;;7.73;7.10;;;21.60;99.90;;;;;;5116147;28;20165;-65
2023/06/11 06:17:01;;;;;;;7.83;7.10;;;21.60;99.90;;;;;;5116317;28;20407;-65
2023/06/11 06:19:26;;;;;;;7.93;7.33;;;21.80;99.90;;;;;;5114924;28;20180;-65
2023/06/11 06:21:52;;;;;;;7.80;7.10;;;21.70;99.90;;;;;;5115564;28;20165;-65
2023/06/11 06:24:17;;;;;;;8.93;7.17;;;21.70;99.90;;;;;;5115417;28;20161;-65
2023/06/11 06:26:43;;;;;;;8.93;8.23;;;21.80;99.90;;;;;;5114509;28;20171;-65
2023/06/11 06:29:09;;;;;;;8.10;7.40;;;21.80;99.90;;;;;;5115535;28;20716;-65
2023/06/11 06:31:40;;;;;;;7.53;6.93;;;21.90;99.90;;;;;;5115692;28;20866;-65
2023/06/11 06:34:06;;;;;;;8.27;7.57;;;21.70;99.90;;;;;;5115016;28;20451;-65
2023/06/11 06:36:32;;;;;;;8.10;7.30;;;22.00;99.90;;;;;;5115047;28;20398;-65
2023/06/11 06:38:58;;;;;;;8.00;7.20;;;22.20;99.90;;;;;;5115173;28;20736;-67
2023/06/11 06:41:23;;;;;;;7.97;7.37;;;22.20;99.90;;;;;;5114708;28;20173;-67
2023/06/11 06:43:49;;;;;;;7.60;7.00;;;22.30;99.90;;;;;;5115291;28;20184;-66
2023/06/11 06:46:15;;;;;;;7.23;6.63;;;22.40;99.90;;;;;;5114399;28;20172;-66
2023/06/11 06:48:40;;;;;;;8.57;7.77;;;22.40;99.90;;;;;;5114295;28;20188;-65
2023/06/11 06:51:06;;;;;;;8.03;7.43;;;22.50;99.90;;;;;;5114858;28;20540;-66
2023/06/11 06:53:31;;;;;;;7.93;7.33;;;22.40;99.90;;;;;;5114903;28;20217;-66
2023/06/11 06:55:59;;;;;;;7.60;6.90;;;22.50;99.90;;;;;;5114592;28;20196;-66
2023/06/11 06:58:26;;;;;;;7.17;6.57;;;22.30;99.90;;;;;;5114716;28;20225;-65
2023/06/11 07:00:51;;;;;;;7.97;7.37;;;22.40;99.90;;;;;;5114665;28;20441;-66
2023/06/11 07:03:17;;;;;;;7.17;6.67;;;22.40;99.90;;;;;;5114599;28;20403;-64
2023/06/11 07:05:43;;;;;;;7.53;6.93;;;22.50;99.90;;;;;;5114546;28;20168;-66
2023/06/11 07:08:12;;;;;;;7.40;6.80;;;22.50;99.90;;;;;;5114632;28;20176;-66
2023/06/11 07:10:40;;;;;;;7.03;6.43;;;22.40;99.90;;;;;;5114388;28;20458;-65
2023/06/11 07:13:07;;;;;;;7.70;7.00;;;22.30;99.90;;;;;;5095731;28;20406;-66
2023/06/11 07:15:33;;;;;;;7.57;6.50;;;22.40;99.90;;;;;;5114711;28;20403;-65
2023/06/11 07:17:59;;;;;;;7.60;6.90;;;22.40;99.90;;;;;;5114672;28;20429;-63
2023/06/11 07:20:24;;;;;;;6.97;6.37;;;22.60;99.90;;;;;;5114234;28;20718;-66
2023/06/11 07:22:50;;;;;;;8.30;7.60;;;22.80;99.90;;;;;;5114639;28;20599;-66
2023/06/11 07:25:16;;;;;;;8.57;7.73;;;22.80;99.90;;;;;;5113967;28;20204;-65
2023/06/11 07:27:42;;;;;;;7.50;6.90;;;22.80;99.90;;;;;;5114146;28;20410;-64
2023/06/11 07:30:09;;;;;;;8.37;7.53;;;22.80;99.90;;;;;;5113729;28;20746;-66
2023/06/11 07:32:36;;;;;;;7.20;6.70;;;22.90;99.90;;;;;;5114507;28;20398;-66
2023/06/11 07:35:01;;;;;;;8.83;6.77;;;22.90;99.90;;;;;;5113871;28;20401;-66
2023/06/11 07:37:27;;;;;;;7.30;6.70;;;22.80;99.90;;;;;;5114205;28;20402;-66
2023/06/11 07:39:52;;;;;;;7.70;6.97;;;22.90;99.90;;;;;;5113588;28;20647;-66
2023/06/11 07:42:18;;;;;;;11.23;6.87;;;23.00;99.90;;;;;;5113542;28;20176;-65
2023/06/11 07:44:43;;;;;;;7.27;6.57;;;23.00;99.90;;;;;;5113936;28;20194;-66
2023/06/11 07:47:09;;;;;;;23.87;21.30;;;23.10;99.90;;;;;;5113957;28;20172;-66
2023/06/11 07:49:35;;;;;;;7.93;7.33;;;23.10;99.90;;;;;;5113764;28;20211;-66
2023/06/11 07:52:00;;;;;;;7.57;6.80;;;23.10;99.90;;;;;;5113831;28;20248;-67
2023/06/11 07:54:26;;;;;;;7.23;6.10;;;23.20;99.90;;;;;;5114167;28;20222;-66
2023/06/11 07:56:52;;;;;;;6.57;6.00;;;23.20;99.90;;;;;;5113011;28;20583;-65
2023/06/11 07:59:17;;;;;;;6.47;5.87;;;23.30;99.90;;;;;;5113634;28;20196;-65
2023/06/11 08:01:43;;;;;;;6.97;6.47;;;23.50;99.90;;;;;;5113626;28;20168;-67
2023/06/11 08:04:08;;;;;;;6.57;5.93;;;23.50;99.90;;;;;;5113276;28;20218;-65
2023/06/11 08:06:35;;;;;;;7.50;6.90;;;23.50;99.90;;;;;;5113179;28;20171;-65
2023/06/11 08:09:00;;;;;;;6.47;5.93;;;23.60;99.90;;;;;;5113539;28;20193;-65
2023/06/11 08:11:26;;;;;;;6.57;6.07;;;23.90;99.90;;;;;;5113002;28;20960;-66
2023/06/11 08:13:51;;;;;;;6.27;5.73;;;23.90;99.90;;;;;;5112917;28;20189;-66
2023/06/11 08:16:18;;;;;;;6.90;6.33;;;24.00;99.90;;;;;;5113234;28;20161;-66
2023/06/11 08:18:43;;;;;;;6.10;5.50;;;24.10;99.90;;;;;;5113916;28;20610;-65
2023/06/11 08:21:09;;;;;;;6.10;5.50;;;24.40;99.90;;;;;;5112917;28;20435;-65
2023/06/11 08:23:37;;;;;;;6.83;6.33;;;24.30;99.90;;;;;;5112959;28;20217;-65
2023/06/11 08:26:03;;;;;;;6.67;6.00;;;24.20;99.90;;;;;;5112241;28;20541;-66
2023/06/11 08:28:28;;;;;;;7.20;6.60;;;24.20;99.90;;;;;;5114258;28;20442;-67
2023/06/11 08:30:55;;;;;;;6.80;6.07;;;24.20;99.90;;;;;;5113694;28;20605;-65
2023/06/11 08:33:21;;;;;;;7.17;6.43;;;24.20;99.90;;;;;;5113767;28;20695;-65
2023/06/11 08:35:47;;;;;;;6.40;5.90;;;24.20;99.90;;;;;;5113534;28;20406;-64
2023/06/11 08:38:13;;;;;;;6.50;6.00;;;24.30;99.90;;;;;;5113720;28;20152;-65
2023/06/11 08:40:40;;;;;;;6.20;5.40;;;24.40;99.90;;;;;;5113137;28;20418;-67
2023/06/11 08:43:07;;;;;;;7.17;6.67;;;24.60;99.90;;;;;;5112675;28;20213;-67
2023/06/11 08:45:33;;;;;;;6.40;5.90;;;24.60;99.90;;;;;;5113427;28;20402;-66
2023/06/11 08:48:02;;;;;;;6.30;5.80;;;24.80;99.90;;;;;;5113577;28;20841;-66
2023/06/11 08:50:29;;;;;;;6.30;5.80;;;24.90;99.70;;;;;;5113612;28;20192;-65
2023/06/11 08:52:56;;;;;;;6.87;6.23;;;24.90;99.00;;;;;;5113287;28;20406;-66
2023/06/11 08:55:22;;;;;;;6.30;5.70;;;24.70;99.00;;;;;;5112723;28;20402;-67
2023/06/11 08:57:50;;;;;;;6.40;5.90;;;24.80;99.30;;;;;;5112928;28;20877;-67
2023/06/11 09:00:16;;;;;;;6.83;6.23;;;25.00;98.50;;;;;;5112972;28;20309;-67
2023/06/11 09:02:42;;;;;;;7.03;6.23;;;25.20;98.70;;;;;;5113426;28;20481;-66
2023/06/11 09:05:09;;;;;;;6.77;6.17;;;25.40;98.70;;;;;;5113315;28;20919;-65
2023/06/11 09:07:36;;;;;;;6.90;6.30;;;25.30;97.50;;;;;;5113420;28;20157;-66
2023/06/11 09:10:09;;;;;;;6.43;5.83;;;25.20;97.90;;;;;;5112726;28;20454;-66
2023/06/11 09:12:35;;;;;;;6.10;5.60;;;25.30;98.10;;;;;;5113528;28;20426;-66
2023/06/11 09:15:03;;;;;;;5.90;5.30;;;25.40;97.30;;;;;;5113978;28;20896;-66
2023/06/11 09:17:36;;;;;;;6.40;5.57;;;25.40;97.00;;;;;;5112950;28;20403;-66
2023/06/11 09:20:05;;;;;;;7.10;6.50;;;25.50;96.90;;;;;;5112559;28;20430;-66
2023/06/11 09:22:31;;;;;;;6.73;5.90;;;25.60;97.00;;;;;;5112800;28;20802;-66
2023/06/11 09:24:56;;;;;;;5.60;5.20;;;25.50;96.00;;;;;;5111622;28;20430;-66
2023/06/11 09:27:22;;;;;;;7.33;5.90;;;25.30;96.90;;;;;;5112281;28;20650;-66
2023/06/11 09:29:48;;;;;;;6.03;5.53;;;25.40;95.70;;;;;;5112468;28;20577;-66
2023/06/11 09:32:13;;;;;;;6.40;5.83;;;25.50;95.30;;;;;;5112631;28;20156;-66
2023/06/11 09:34:42;;;;;;;6.13;5.63;;;25.80;95.30;;;;;;5113034;28;20160;-66
2023/06/11 09:37:11;;;;;;;6.03;5.60;;;26.00;95.70;;;;;;5112965;28;20168;-66
2023/06/11 09:39:36;;;;;;;5.80;5.30;;;26.10;94.30;;;;;;5112615;28;20830;-66
2023/06/11 09:42:02;;;;;;;6.47;5.97;;;26.30;93.40;;;;;;5112523;28;20401;-65
2023/06/11 09:44:33;;;;;;;5.93;5.43;;;26.30;93.10;;;;;;5113211;28;20256;-65
2023/06/11 09:46:59;;;;;;;6.27;5.67;;;26.50;93.30;;;;;;5112744;28;20653;-66
2023/06/11 09:49:25;;;;;;;6.23;5.73;;;26.40;92.60;;;;;;5112692;28;20511;-66
2023/06/11 09:51:52;;;;;;;6.77;5.87;;;26.50;92.10;;;;;;5112886;28;20485;-66
2023/06/11 09:54:20;;;;;;;5.80;5.30;;;26.60;92.80;;;;;;5112752;28;20414;-66
2023/06/11 09:56:47;;;;;;;5.57;5.17;;;26.70;91.70;;;;;;5111977;28;20447;-66
2023/06/11 09:59:16;;;;;;;6.57;5.97;;;26.50;91.90;;;;;;5112309;28;20426;-65
2023/06/11 10:01:47;;;;;;;6.03;5.57;;;26.40;91.00;;;;;;5112054;28;20399;-66
2023/06/11 10:04:12;;;;;;;6.90;6.30;;;26.60;91.20;;;;;;5112559;28;20478;-66
2023/06/11 10:06:45;;;;;;;6.13;5.57;;;26.70;91.20;;;;;;5112252;28;20483;-66
2023/06/11 10:09:14;;;;;;;6.00;5.50;;;26.70;90.20;;;;;;5111981;28;20275;-66
2023/06/11 10:11:40;;;;;;;6.50;5.87;;;26.70;89.10;;;;;;5111760;28;20400;-66
2023/06/11 10:14:14;;;;;;;5.40;5.00;;;26.80;87.50;;;;;;5112199;28;20455;-66
2023/06/11 10:16:40;;;;;;;6.23;5.63;;;26.80;87.10;;;;;;5112489;28;20407;-66
2023/06/11 10:19:10;;;;;;;5.73;5.23;;;26.90;86.30;;;;;;5112383;28;20788;-66
2023/06/11 10:21:44;;;;;;;5.40;4.93;;;27.00;86.40;;;;;;5115361;28;20821;-66
2023/06/11 10:24:26;;;;;;;5.70;5.23;;;27.30;84.00;;;;;;5116406;28;20436;-66
2023/06/11 10:27:05;;;;;;;6.37;5.30;;;27.60;81.30;;;;;;5114915;28;20419;-66
2023/06/11 10:29:37;;;;;;;6.20;5.70;;;27.50;79.90;;;;;;5116023;28;20495;-66
2023/06/11 10:32:02;;;;;;;5.27;4.87;;;27.30;80.50;;;;;;5116785;28;20753;-66
2023/06/11 10:34:39;;;;;;;5.30;4.90;;;27.20;81.00;;;;;;5116220;28;20413;-66
2023/06/11 10:37:05;;;;;;;6.60;6.10;;;27.20;83.70;;;;;;5116229;28;20144;-66
2023/06/11 10:39:31;;;;;;;6.40;5.77;;;27.60;83.60;;;;;;5115585;28;20474;-66
2023/06/11 10:42:01;;;;;;;6.63;5.90;;;27.80;80.50;;;;;;5115280;28;20406;-66
2023/06/11 10:44:29;;;;;;;6.23;5.27;;;27.90;79.50;;;;;;5116156;28;20570;-66
2023/06/11 10:46:55;;;;;;;8.40;5.97;;;27.80;78.90;;;;;;5115929;28;20406;-66
2023/06/11 10:49:27;;;;;;;7.63;6.20;;;27.60;78.00;;;;;;5115952;28;20445;-66
2023/06/11 10:51:53;;;;;;;6.37;5.77;;;27.40;79.90;;;;;;5115971;28;20391;-66
2023/06/11 10:54:33;;;;;;;6.10;5.60;;;27.20;80.10;;;;;;5115891;28;20411;-66
2023/06/11 10:57:01;;;;;;;6.53;5.93;;;27.50;80.80;;;;;;5115252;28;20769;-66
2023/06/11 10:59:28;;;;;;;6.17;5.57;;;27.70;77.50;;;;;;5115597;28;20414;-66
2023/06/11 11:01:54;;;;;;;5.87;5.47;;;27.90;78.90;;;;;;5115616;28;20904;-66
2023/06/11 11:04:21;;;;;;;6.10;5.50;;;28.10;79.20;;;;;;5115951;28;20402;-66
2023/06/11 11:06:48;;;;;;;6.00;5.53;;;28.30;80.70;;;;;;5115676;28;20407;-66
2023/06/11 11:09:21;;;;;;;6.10;5.50;;;28.10;78.60;;;;;;5115645;28;20814;-66
2023/06/11 11:11:47;;;;;;;7.23;6.43;;;27.80;77.80;;;;;;5115228;28;20462;-66
2023/06/11 11:14:14;;;;;;;7.00;6.50;;;27.90;79.30;;;;;;5115345;28;20410;-66
2023/06/11 11:16:39;;;;;;;7.50;5.90;;;27.80;77.00;;;;;;5115571;28;20391;-66
2023/06/11 11:19:05;;;;;;;6.80;6.20;;;27.90;75.50;;;;;;5115629;28;20430;-66
2023/06/11 11:21:31;;;;;;;7.00;5.77;;;28.20;77.10;;;;;;5115573;28;20604;-66
2023/06/11 11:23:57;;;;;;;6.07;5.53;;;28.40;78.00;;;;;;5115535;28;20263;-66
2023/06/11 11:26:22;;;;;;;5.73;5.23;;;28.50;75.50;;;;;;5114441;28;20501;-66
2023/06/11 11:28:49;;;;;;;6.07;5.50;;;28.80;76.50;;;;;;5115291;28;20195;-66
2023/06/11 11:31:17;;;;;;;5.70;5.30;;;29.20;73.40;;;;;;5115298;28;20171;-69
2023/06/11 11:33:45;;;;;;;6.40;5.67;;;30.10;71.20;;;;;;5115054;28;20888;-68
2023/06/11 11:36:11;;;;;;;6.67;6.17;;;30.70;69.10;;;;;;5115009;28;20478;-69
2023/06/11 11:38:38;;;;;;;5.97;5.43;;;31.60;65.60;;;;;;5114774;28;20406;-69
2023/06/11 11:41:08;;;;;;;5.47;4.97;;;31.40;64.70;;;;;;5114532;28;20407;-69
2023/06/11 11:43:40;;;;;;;5.87;5.40;;;31.60;63.30;;;;;;5115009;28;20375;-69
2023/06/11 11:46:18;;;;;;;6.10;5.50;;;30.60;63.40;;;;;;5114614;28;20406;-69
2023/06/11 11:48:45;;;;;;;5.33;4.90;;;31.90;61.80;;;;;;5114728;28;20425;-69
2023/06/11 11:51:13;;;;;;;6.10;5.57;;;32.70;58.10;;;;;;5114637;28;20821;-69
2023/06/11 11:53:39;;;;;;;6.63;6.13;;;34.50;55.10;;;;;;5114672;28;20408;-69
2023/06/11 11:56:05;;;;;;;5.83;5.20;;;34.70;55.00;;;;;;5114426;28;20512;-70
2023/06/11 11:58:41;;;;;;;5.50;5.00;;;34.00;54.40;;;;;;5114446;28;20441;-69
2023/06/11 12:01:10;;;;;;;6.53;5.77;;;33.20;55.40;;;;;;5114368;28;20171;-69
2023/06/11 12:03:39;;;;;;;5.07;4.70;;;34.00;52.80;;;;;;5112318;28;20485;-69
2023/06/11 12:06:08;;;;;;;5.73;5.17;;;34.60;52.00;;;;;;5114586;28;20486;-69
2023/06/11 12:08:36;;;;;;;6.20;5.70;;;33.80;50.90;;;;;;5114430;28;20964;-69
2023/06/11 12:11:06;;;;;;;5.80;5.30;;;34.00;50.90;;;;;;5113912;28;20955;-69
2023/06/11 12:13:32;;;;;;;6.00;5.50;;;34.40;50.20;;;;;;5114401;28;20422;-69
2023/06/11 12:15:58;;;;;;;5.77;5.37;;;34.60;49.70;;;;;;5113920;28;20411;-70
2023/06/11 12:18:24;;;;;;;6.50;5.07;;;35.50;49.30;;;;;;5114383;28;20187;-69
2023/06/11 12:20:49;;;;;;;5.50;5.10;;;35.60;48.10;;;;;;5114071;28;20957;-70
2023/06/11 12:23:15;;;;;;;5.63;5.03;;;35.30;48.00;;;;;;5114479;28;20222;-70
2023/06/11 12:25:42;;;;;;;6.63;4.87;;;35.40;47.50;;;;;;5112890;28;20538;-69
2023/06/11 12:28:07;;;;;;;5.13;4.67;;;35.60;45.30;;;;;;5114233;28;20179;-69
2023/06/11 12:30:34;;;;;;;5.20;4.80;;;35.10;47.10;;;;;;5113603;28;20450;-70
2023/06/11 12:33:00;;;;;;;8.43;4.90;;;34.90;46.60;;;;;;5114128;28;20156;-70
2023/06/11 12:35:28;;;;;;;5.83;5.27;;;35.50;45.70;;;;;;5113411;28;20440;-69
2023/06/11 12:37:53;;;;;;;7.80;5.10;;;35.50;47.00;;;;;;5113985;28;20169;-69
2023/06/11 12:40:19;;;;;;;5.63;5.23;;;35.40;46.70;;;;;;5113479;28;20936;-69
2023/06/11 12:42:45;;;;;;;5.07;4.67;;;35.20;47.50;;;;;;5113000;28;20173;-69
2023/06/11 12:45:10;;;;;;;4.93;4.53;;;35.80;46.10;;;;;;5113285;28;20646;-69